createdAt,value
2019-04-05T00:01:53.609Z,6.90
2019-04-05T00:04:26.053Z,6.90
2019-04-05T00:06:59.075Z,6.90
2019-04-05T00:09:30.349Z,6.90
2019-04-05T00:12:01.779Z,6.70
2019-04-05T00:14:33.052Z,6.70
2019-04-05T00:17:06.087Z,6.80
2019-04-05T00:19:37.464Z,6.80
2019-04-05T00:22:08.811Z,6.80
2019-04-05T00:24:40.159Z,6.70
2019-04-05T00:27:11.507Z,6.80
2019-04-05T00:29:42.825Z,6.80
2019-04-05T00:32:14.229Z,6.80
2019-04-05T00:34:45.524Z,6.70
2019-04-05T00:37:16.721Z,6.80
2019-04-05T00:39:47.975Z,6.80
2019-04-05T00:42:19.274Z,6.70
2019-04-05T00:44:50.590Z,6.70
2019-04-05T00:47:21.926Z,6.70
2019-04-05T00:49:53.235Z,6.60
2019-04-05T00:52:24.436Z,6.60
2019-04-05T00:54:55.900Z,6.60
2019-04-05T00:57:27.162Z,6.50
2019-04-05T00:59:58.491Z,6.50
2019-04-05T01:02:30.132Z,6.50
2019-04-05T01:05:03.251Z,6.50
2019-04-05T01:07:36.448Z,6.40
2019-04-05T01:10:08.724Z,6.50
2019-04-05T01:12:40.809Z,6.40
2019-04-05T01:15:14.307Z,6.40
2019-04-05T01:17:45.590Z,6.40
2019-04-05T01:20:17.134Z,6.40
2019-04-05T01:22:48.855Z,6.50
2019-04-05T01:25:22.299Z,6.40
2019-04-05T01:27:54.494Z,6.40
2019-04-05T01:30:26.975Z,6.40
2019-04-05T01:32:58.902Z,6.40
2019-04-05T01:35:31.079Z,6.30
2019-04-05T01:38:04.086Z,6.40
2019-04-05T01:40:38.354Z,6.40
2019-04-05T01:43:10.318Z,6.30
2019-04-05T01:45:52.930Z,6.30
2019-04-05T01:48:15.353Z,6.10
2019-04-05T01:50:48.386Z,6.20
2019-04-05T01:53:20.236Z,6.10
2019-04-05T01:55:51.559Z,6.10
2019-04-05T01:58:22.928Z,6.20
2019-04-05T02:00:54.347Z,6.10
2019-04-05T02:03:25.591Z,6.00
2019-04-05T02:05:57.033Z,6.00
2019-04-05T02:08:30.975Z,6.00
2019-04-05T02:11:02.459Z,6.10
2019-04-05T02:13:34.807Z,6.10
2019-04-05T02:16:06.997Z,6.00
2019-04-05T02:18:38.392Z,6.00
2019-04-05T02:21:09.730Z,5.90
2019-04-05T02:23:41.178Z,6.00
2019-04-05T02:26:12.598Z,5.90
2019-04-05T02:28:43.788Z,5.80
2019-04-05T02:31:16.550Z,5.80
2019-04-05T02:33:48.218Z,5.90
2019-04-05T02:36:20.042Z,5.80
2019-04-05T02:38:51.329Z,5.80
2019-04-05T02:41:24.380Z,5.80
2019-04-05T02:43:58.031Z,5.80
2019-04-05T02:46:31.433Z,5.80
2019-04-05T02:49:04.719Z,5.70
2019-04-05T02:51:38.074Z,5.70
2019-04-05T02:54:11.942Z,5.70
2019-04-05T02:56:45.234Z,5.70
2019-04-05T02:59:19.062Z,5.70
2019-04-05T03:01:51.520Z,5.70
2019-04-05T03:04:23.355Z,5.80
2019-04-05T03:06:54.608Z,5.80
2019-04-05T03:09:26.951Z,5.70
2019-04-05T03:12:00.222Z,5.60
2019-04-05T03:14:32.191Z,5.70
2019-04-05T03:17:03.692Z,5.70
2019-04-05T03:19:37.287Z,5.60
2019-04-05T03:22:11.625Z,5.70
2019-04-05T03:24:46.183Z,5.70
2019-04-05T03:27:24.693Z,5.50
2019-04-05T03:29:56.902Z,5.40
2019-04-05T03:32:28.259Z,5.30
2019-04-05T03:35:00.085Z,5.30
2019-04-05T03:37:32.823Z,5.40
2019-04-05T03:40:04.558Z,5.40
2019-04-05T03:42:36.421Z,5.40
2019-04-05T03:45:07.934Z,5.30
2019-04-05T03:47:39.323Z,5.40
2019-04-05T03:50:10.986Z,5.30
2019-04-05T03:52:42.325Z,5.30
2019-04-05T03:55:14.066Z,5.20
2019-04-05T03:57:45.308Z,5.30
2019-04-05T04:00:17.642Z,5.30
2019-04-05T04:02:49.618Z,5.20
2019-04-05T04:05:21.163Z,5.20
2019-04-05T04:07:53.370Z,5.30
2019-04-05T04:10:27.139Z,5.20
2019-04-05T04:12:59.144Z,5.30
2019-04-05T04:15:33.096Z,5.20
2019-04-05T04:18:05.294Z,5.10
2019-04-05T04:20:40.992Z,5.20
2019-04-05T04:23:13.090Z,5.20
2019-04-05T04:25:45.687Z,5.20
2019-04-05T04:28:17.098Z,5.10
2019-04-05T04:30:50.179Z,5.20
2019-04-05T04:33:22.290Z,5.40
2019-04-05T04:35:55.671Z,5.40
2019-04-05T04:38:27.795Z,5.30
2019-04-05T04:41:02.077Z,5.30
2019-04-05T04:43:33.387Z,5.00
2019-04-05T04:46:05.983Z,5.20
2019-04-05T04:48:40.077Z,5.40
2019-04-05T04:51:13.193Z,5.70
2019-04-05T04:53:45.485Z,5.80
2019-04-05T04:56:18.888Z,5.80
2019-04-05T04:58:50.302Z,5.70
2019-04-05T05:01:22.738Z,5.80
2019-04-05T05:03:54.061Z,6.00
2019-04-05T05:06:26.142Z,6.10
2019-04-05T05:09:00.808Z,6.50
2019-04-05T05:11:33.457Z,7.90
2019-04-05T05:14:06.397Z,9.40
2019-04-05T05:16:38.300Z,10.40
2019-04-05T05:19:09.556Z,11.10
2019-04-05T05:21:41.233Z,11.80
2019-04-05T05:24:13.281Z,12.00
2019-04-05T05:26:45.103Z,12.50
2019-04-05T05:29:18.032Z,13.10
2019-04-05T05:31:51.524Z,13.60
2019-04-05T05:34:23.315Z,14.00
2019-04-05T05:36:55.924Z,14.20
2019-04-05T05:39:27.352Z,14.40
2019-04-05T05:41:58.567Z,14.30
2019-04-05T05:44:29.845Z,14.40
2019-04-05T05:47:01.149Z,13.50
2019-04-05T05:49:32.619Z,13.10
2019-04-05T05:52:05.246Z,12.20
2019-04-05T05:54:37.721Z,11.80
2019-04-05T05:57:10.159Z,11.40
2019-04-05T05:59:42.087Z,11.20
2019-04-05T06:02:14.839Z,11.10
2019-04-05T06:04:46.471Z,11.00
2019-04-05T06:07:20.006Z,10.80
2019-04-05T06:09:51.141Z,10.70
2019-04-05T06:12:23.408Z,10.60
2019-04-05T06:14:54.694Z,10.50
2019-04-05T06:17:27.431Z,10.50
2019-04-05T06:19:58.662Z,10.20
2019-04-05T06:22:30.552Z,9.90
2019-04-05T06:25:02.521Z,9.90
2019-04-05T06:27:35.502Z,9.80
2019-04-05T06:30:08.606Z,9.70
2019-04-05T06:32:40.604Z,9.90
2019-04-05T06:35:12.735Z,10.00
2019-04-05T06:37:44.067Z,10.00
2019-04-05T06:40:17.342Z,10.10
2019-04-05T06:42:48.797Z,9.90
2019-04-05T06:45:21.170Z,9.70
2019-04-05T06:47:52.713Z,9.70
2019-04-05T06:50:25.112Z,9.70
2019-04-05T06:52:56.733Z,9.80
2019-04-05T06:55:28.255Z,9.60
2019-04-05T06:58:00.057Z,9.60
2019-04-05T07:00:32.046Z,9.50
2019-04-05T07:03:03.332Z,9.60
2019-04-05T07:05:34.628Z,9.60
2019-04-05T07:08:06.254Z,9.40
2019-04-05T07:10:37.538Z,9.50
2019-04-05T07:13:09.578Z,9.60
2019-04-05T07:15:42.115Z,9.70
2019-04-05T07:18:13.862Z,9.90
2019-04-05T07:20:45.102Z,10.00
2019-04-05T07:23:16.465Z,10.10
2019-04-05T07:25:48.479Z,10.00
2019-04-05T07:28:19.845Z,10.10
2019-04-05T07:30:51.857Z,10.20
2019-04-05T07:33:23.182Z,10.00
2019-04-05T07:35:54.456Z,9.90
2019-04-05T07:38:25.812Z,10.00
2019-04-05T07:40:58.418Z,10.10
2019-04-05T07:43:30.523Z,10.20
2019-04-05T07:46:02.690Z,10.20
2019-04-05T07:48:44.212Z,10.10
2019-04-05T07:51:07.536Z,10.00
2019-04-05T07:53:38.789Z,10.10
2019-04-05T07:56:10.245Z,9.90
2019-04-05T07:58:42.760Z,9.90
2019-04-05T08:01:14.853Z,9.90
2019-04-05T08:03:46.228Z,9.80
2019-04-05T08:06:19.595Z,9.80
2019-04-05T08:09:15.035Z,9.80
2019-04-05T08:11:47.257Z,9.90
2019-04-05T08:14:19.812Z,9.70
2019-04-05T08:16:52.134Z,9.70
2019-04-05T08:19:23.450Z,9.80
2019-04-05T08:21:55.175Z,10.00
2019-04-05T08:24:26.537Z,10.10
2019-04-05T08:26:57.775Z,10.10
2019-04-05T08:29:30.300Z,10.10
2019-04-05T08:32:13.636Z,10.20
2019-04-05T08:34:35.432Z,10.30
2019-04-05T08:37:06.827Z,10.10
2019-04-05T08:39:38.333Z,10.30
2019-04-05T08:42:11.006Z,10.40
2019-04-05T08:44:42.879Z,10.30
2019-04-05T08:47:14.225Z,10.40
2019-04-05T08:49:45.537Z,10.50
2019-04-05T08:52:18.023Z,10.60
2019-04-05T08:54:49.317Z,10.80
2019-04-05T08:57:20.701Z,10.80
2019-04-05T08:59:53.381Z,10.70
2019-04-05T09:02:24.910Z,10.70
2019-04-05T09:04:57.050Z,10.70
2019-04-05T09:07:28.541Z,10.60
2019-04-05T09:10:00.075Z,10.70
2019-04-05T09:12:32.342Z,10.50
2019-04-05T09:15:04.418Z,10.30
2019-04-05T09:17:36.726Z,9.90
2019-04-05T09:20:08.203Z,9.80
2019-04-05T09:22:39.535Z,9.60
2019-04-05T09:25:11.016Z,9.70
2019-04-05T09:27:42.383Z,9.80
2019-04-05T09:30:14.219Z,9.60
2019-04-05T09:32:46.030Z,9.60
2019-04-05T09:35:18.087Z,9.70
2019-04-05T09:37:49.295Z,9.60
2019-04-05T09:40:21.564Z,9.70
2019-04-05T09:42:52.852Z,9.90
2019-04-05T09:45:24.246Z,10.00
2019-04-05T09:47:56.326Z,10.00
2019-04-05T09:50:27.602Z,9.90
2019-04-05T09:52:59.284Z,9.90
2019-04-05T09:55:30.984Z,9.90
2019-04-05T09:58:04.585Z,9.90
2019-04-05T10:00:36.003Z,9.70
2019-04-05T10:03:07.417Z,9.60
2019-04-05T10:05:39.238Z,9.50
2019-04-05T10:08:11.207Z,9.40
2019-04-05T10:10:43.486Z,9.40
2019-04-05T10:13:15.839Z,9.60
2019-04-05T10:15:47.114Z,9.80
2019-04-05T10:18:19.805Z,9.70
2019-04-05T10:20:51.034Z,9.80
2019-04-05T10:23:22.397Z,9.90
2019-04-05T10:25:54.430Z,9.90
2019-04-05T10:28:27.244Z,9.80
2019-04-05T10:30:59.173Z,9.90
2019-04-05T10:33:30.788Z,9.80
2019-04-05T10:36:02.189Z,9.90
2019-04-05T10:38:33.815Z,10.10
2019-04-05T10:41:06.331Z,10.10
2019-04-05T10:43:37.798Z,10.10
2019-04-05T10:46:09.173Z,10.00
2019-04-05T10:48:41.161Z,9.90
2019-04-05T10:51:13.283Z,9.90
2019-04-05T10:53:44.549Z,10.00
2019-04-05T10:56:15.913Z,10.20
2019-04-05T10:58:47.504Z,10.20
2019-04-05T11:01:18.823Z,10.30
2019-04-05T11:03:51.198Z,10.30
2019-04-05T11:06:22.442Z,10.40
2019-04-05T11:08:53.842Z,10.20
2019-04-05T11:11:25.178Z,10.40
2019-04-05T11:13:58.108Z,10.40
2019-04-05T11:16:29.418Z,10.50
2019-04-05T11:19:02.268Z,10.70
2019-04-05T11:21:34.271Z,10.70
2019-04-05T11:24:06.265Z,10.70
2019-04-05T11:26:38.553Z,10.50
2019-04-05T11:29:10.183Z,10.60
2019-04-05T11:31:41.601Z,10.60
2019-04-05T11:34:12.996Z,10.30
2019-04-05T11:36:45.968Z,10.30
2019-04-05T11:39:19.234Z,10.10
2019-04-05T11:41:52.257Z,10.20
2019-04-05T11:44:25.387Z,10.30
2019-04-05T11:46:58.042Z,10.20
2019-04-05T11:49:30.502Z,10.30
2019-04-05T11:52:01.897Z,10.30
2019-04-05T11:54:34.730Z,10.50
2019-04-05T11:57:06.239Z,10.70
2019-04-05T11:59:37.619Z,10.70
2019-04-05T12:02:34.607Z,10.80
2019-04-05T12:05:08.089Z,10.90
2019-04-05T12:07:40.320Z,11.10
2019-04-05T12:10:14.062Z,11.20
2019-04-05T12:12:46.011Z,11.30
2019-04-05T12:15:17.524Z,11.30
2019-04-05T12:17:49.080Z,11.50
2019-04-05T12:20:21.295Z,11.50
2019-04-05T12:22:52.974Z,11.40
2019-04-05T12:25:25.118Z,11.60
2019-04-05T12:28:06.298Z,11.80
2019-04-05T12:30:30.893Z,11.80
2019-04-05T12:33:13.197Z,11.90
2019-04-05T12:35:37.581Z,11.90
2019-04-05T12:38:09.718Z,12.00
2019-04-05T12:40:41.428Z,12.10
2019-04-05T12:43:14.297Z,11.90
2019-04-05T12:45:47.957Z,12.10
2019-04-05T12:48:20.414Z,12.00
2019-04-05T12:51:00.978Z,12.20
2019-04-05T12:53:26.952Z,12.30
2019-04-05T12:55:59.290Z,12.20
2019-04-05T12:58:32.687Z,12.30
2019-04-05T13:01:08.221Z,12.40
2019-04-05T13:03:39.669Z,12.40
2019-04-05T13:06:11.151Z,12.30
2019-04-05T13:08:43.423Z,12.30
2019-04-05T13:11:14.904Z,12.30
2019-04-05T13:13:46.892Z,12.20
2019-04-05T13:16:18.397Z,12.20
2019-04-05T13:18:49.702Z,12.10
2019-04-05T13:21:25.971Z,12.10
2019-04-05T13:23:54.330Z,12.10
2019-04-05T13:26:26.505Z,12.20
2019-04-05T13:28:59.228Z,12.20
2019-04-05T13:31:31.407Z,12.10
2019-04-05T13:34:03.034Z,12.30
2019-04-05T13:36:35.038Z,12.40
2019-04-05T13:39:08.020Z,12.40
2019-04-05T13:41:39.376Z,12.40
2019-04-05T13:44:11.645Z,12.40
2019-04-05T13:46:43.672Z,12.30
2019-04-05T13:49:15.947Z,12.20
2019-04-05T13:51:47.907Z,12.20
2019-04-05T13:54:20.748Z,12.30
2019-04-05T13:56:53.231Z,12.20
2019-04-05T13:59:24.714Z,12.30
2019-04-05T14:02:05.638Z,12.30
2019-04-05T14:04:29.836Z,12.30
2019-04-05T14:07:03.695Z,12.40
2019-04-05T14:09:34.723Z,12.40
2019-04-05T14:12:09.558Z,12.50
2019-04-05T14:14:42.138Z,12.50
2019-04-05T14:17:16.181Z,12.60
2019-04-05T14:19:48.721Z,12.60
2019-04-05T14:22:22.536Z,12.60
2019-04-05T14:24:56.632Z,12.50
2019-04-05T14:27:28.376Z,12.50
2019-04-05T14:30:03.177Z,12.60
2019-04-05T14:32:35.060Z,12.70
2019-04-05T14:35:09.315Z,12.70
2019-04-05T14:37:41.743Z,12.60
2019-04-05T14:40:14.921Z,12.70
2019-04-05T14:42:46.392Z,12.70
2019-04-05T14:45:18.189Z,12.70
2019-04-05T14:47:50.050Z,12.70
2019-04-05T14:50:22.309Z,12.70
2019-04-05T14:52:54.445Z,12.80
2019-04-05T14:55:27.616Z,12.80
2019-04-05T14:57:58.619Z,12.90
2019-04-05T15:00:30.144Z,12.90
2019-04-05T15:03:02.249Z,13.00
2019-04-05T15:05:33.654Z,13.00
2019-04-05T15:08:05.086Z,13.00
2019-04-05T15:10:36.951Z,13.10
2019-04-05T15:13:08.894Z,13.10
2019-04-05T15:15:40.778Z,13.00
2019-04-05T15:18:12.991Z,13.10
2019-04-05T15:20:45.086Z,13.10
2019-04-05T15:23:16.583Z,13.10
2019-04-05T15:25:49.893Z,13.10
2019-04-05T15:28:22.496Z,13.20
2019-04-05T15:30:56.113Z,13.10
2019-04-05T15:33:28.455Z,13.20
2019-04-05T15:36:02.854Z,13.20
2019-04-05T15:38:33.744Z,13.20
2019-04-05T15:41:05.787Z,13.30
2019-04-05T15:43:37.378Z,13.30
2019-04-05T15:46:09.470Z,13.30
2019-04-05T15:48:41.554Z,13.20
2019-04-05T15:51:13.232Z,13.20
2019-04-05T15:53:44.582Z,13.20
2019-04-05T15:56:15.996Z,13.10
2019-04-05T15:58:47.345Z,13.10
2019-04-05T16:01:19.054Z,13.20
2019-04-05T16:03:50.484Z,13.10
2019-04-05T16:06:22.395Z,13.10
2019-04-05T16:08:54.068Z,13.00
2019-04-05T16:11:25.313Z,12.90
2019-04-05T16:13:57.182Z,12.80
2019-04-05T16:16:29.445Z,12.80
2019-04-05T16:19:00.977Z,12.60
2019-04-05T16:21:32.463Z,12.60
2019-04-05T16:24:04.249Z,12.60
2019-04-05T16:26:35.654Z,12.60
2019-04-05T16:29:08.113Z,12.50
2019-04-05T16:31:39.603Z,12.50
2019-04-05T16:34:11.591Z,12.40
2019-04-05T16:36:43.756Z,12.40
2019-04-05T16:39:19.136Z,12.30
2019-04-05T16:41:50.569Z,12.20
2019-04-05T16:44:22.138Z,12.10
2019-04-05T16:46:54.071Z,12.10
2019-04-05T16:49:26.281Z,12.10
2019-04-05T16:51:58.677Z,12.00
2019-04-05T16:54:30.103Z,12.10
2019-04-05T16:57:01.688Z,12.00
2019-04-05T16:59:34.453Z,11.90
2019-04-05T17:02:05.760Z,11.90
2019-04-05T17:04:37.879Z,11.90
2019-04-05T17:07:09.749Z,11.90
2019-04-05T17:09:41.104Z,11.90
2019-04-05T17:12:12.378Z,11.80
2019-04-05T17:14:44.262Z,11.80
2019-04-05T17:17:15.570Z,11.80
2019-04-05T17:19:47.956Z,11.80
2019-04-05T17:22:20.123Z,11.80
2019-04-05T17:24:52.465Z,11.80
2019-04-05T17:27:24.867Z,11.70
2019-04-05T17:29:56.873Z,11.70
2019-04-05T17:32:28.271Z,11.60
2019-04-05T17:35:02.825Z,11.60
2019-04-05T17:37:34.057Z,11.60
2019-04-05T17:40:06.228Z,11.60
2019-04-05T17:42:37.745Z,11.50
2019-04-05T17:45:10.013Z,11.50
2019-04-05T17:47:42.498Z,11.50
2019-04-05T17:50:16.994Z,11.40
2019-04-05T17:52:48.304Z,11.40
2019-04-05T17:55:19.590Z,11.30
2019-04-05T17:57:51.311Z,11.20
2019-04-05T18:00:24.070Z,11.20
2019-04-05T18:02:55.747Z,11.20
2019-04-05T18:05:27.107Z,11.30
2019-04-05T18:07:59.104Z,11.30
2019-04-05T18:10:31.104Z,11.20
2019-04-05T18:13:04.248Z,11.20
2019-04-05T18:15:36.543Z,11.20
2019-04-05T18:18:07.925Z,11.10
2019-04-05T18:20:39.347Z,11.10
2019-04-05T18:23:23.801Z,11.10
2019-04-05T18:25:46.512Z,10.90
2019-04-05T18:28:18.061Z,10.90
2019-04-05T18:30:50.024Z,10.90
2019-04-05T18:33:22.527Z,10.90
2019-04-05T18:35:54.163Z,10.90
2019-04-05T18:38:26.450Z,10.90
2019-04-05T18:40:59.591Z,11.00
2019-04-05T18:43:31.526Z,11.00
2019-04-05T18:46:02.951Z,11.00
2019-04-05T18:48:35.156Z,11.10
2019-04-05T18:51:06.789Z,11.00
2019-04-05T18:53:38.317Z,11.10
2019-04-05T18:56:11.051Z,11.10
2019-04-05T18:58:42.287Z,11.20
2019-04-05T19:01:13.598Z,11.20
2019-04-05T19:03:44.889Z,11.30
2019-04-05T19:06:16.211Z,11.20
2019-04-05T19:08:47.547Z,11.10
2019-04-05T19:11:18.897Z,11.10
2019-04-05T19:14:00.480Z,11.00
2019-04-05T19:16:24.866Z,10.90
2019-04-05T19:18:56.265Z,10.90
2019-04-05T19:21:27.597Z,10.90
2019-04-05T19:23:59.248Z,10.80
2019-04-05T19:26:32.817Z,10.70
2019-04-05T19:29:04.939Z,10.70
2019-04-05T19:49:28.700Z,10.40
2019-04-05T19:51:59.990Z,10.40
2019-04-05T19:54:31.723Z,10.40
2019-04-05T19:57:03.073Z,10.30
2019-04-05T19:59:34.347Z,10.30
2019-04-05T20:02:06.580Z,10.30
2019-04-05T20:04:38.461Z,10.30
2019-04-05T20:07:09.751Z,10.20
2019-04-05T20:09:41.217Z,10.20
2019-04-05T20:12:13.832Z,10.30
2019-04-05T20:14:45.859Z,10.40
2019-04-05T20:17:17.877Z,10.20
2019-04-05T20:19:49.275Z,10.20
2019-04-05T20:22:21.861Z,10.10
2019-04-05T20:24:54.473Z,10.20
2019-04-05T20:27:25.902Z,10.10
2019-04-05T20:29:57.205Z,10.10
2019-04-05T20:32:28.604Z,10.10
2019-04-05T20:35:00.016Z,10.00
2019-04-05T20:37:32.160Z,10.00
2019-04-05T20:40:03.778Z,10.00
2019-04-05T20:42:35.417Z,9.90
2019-04-05T20:45:07.148Z,9.90
2019-04-05T20:47:38.434Z,9.80
2019-04-05T20:50:10.118Z,9.80
2019-04-05T20:52:41.769Z,9.80
2019-04-05T20:55:14.061Z,9.70
2019-04-05T20:57:45.765Z,9.70
2019-04-05T21:00:18.453Z,9.70
2019-04-05T21:02:49.812Z,9.70
2019-04-05T21:05:25.612Z,9.60
2019-04-05T21:07:54.200Z,9.60
2019-04-05T21:10:26.115Z,9.60
2019-04-05T21:12:57.550Z,9.50
2019-04-05T21:15:29.028Z,9.50
2019-04-05T21:18:00.307Z,9.50
2019-04-05T21:20:31.542Z,9.50
2019-04-05T21:23:03.600Z,9.40
2019-04-05T21:25:35.840Z,9.30
2019-04-05T21:28:08.089Z,9.30
2019-04-05T21:30:41.214Z,9.30
2019-04-05T21:33:13.280Z,9.30
2019-04-05T21:35:45.936Z,9.30
2019-04-05T21:38:18.010Z,9.20
2019-04-05T21:40:49.442Z,9.20
2019-04-05T21:43:20.739Z,9.10
2019-04-05T21:45:52.277Z,9.00
2019-04-05T21:48:23.674Z,9.00
2019-04-05T21:50:56.684Z,8.90
2019-04-05T21:53:29.651Z,8.90
2019-04-05T21:56:01.134Z,8.90
2019-04-05T21:58:32.408Z,8.90
2019-04-05T22:01:05.981Z,8.90
2019-04-05T22:03:37.547Z,8.80
2019-04-05T22:06:09.774Z,8.80
2019-04-05T22:08:41.770Z,8.70
2019-04-05T22:11:15.093Z,8.70
2019-04-05T22:13:47.092Z,8.60
2019-04-05T22:16:18.549Z,8.60
2019-04-05T22:18:50.321Z,8.50
2019-04-05T22:21:22.299Z,8.50
2019-04-05T22:23:53.563Z,8.50
2019-04-05T22:26:25.139Z,8.60
2019-04-05T22:28:57.161Z,8.60
2019-04-05T22:31:28.450Z,8.50
2019-04-05T22:34:00.042Z,8.60
2019-04-05T22:36:31.654Z,8.40
2019-04-05T22:39:03.038Z,8.50
2019-04-05T22:41:36.245Z,8.40
2019-04-05T22:44:07.803Z,8.40
2019-04-05T22:46:40.051Z,8.20
2019-04-05T22:49:11.945Z,8.30
2019-04-05T22:51:43.209Z,8.20
2019-04-05T22:54:16.549Z,8.20
2019-04-05T22:56:48.345Z,8.20
2019-04-05T22:59:19.748Z,8.10
2019-04-05T23:01:51.350Z,8.10
2019-04-05T23:04:22.806Z,8.00
2019-04-05T23:06:54.216Z,8.00
2019-04-05T23:09:25.624Z,8.00
2019-04-05T23:11:56.926Z,7.90
2019-04-05T23:14:28.260Z,7.80
2019-04-05T23:16:59.650Z,7.90
2019-04-05T23:19:30.926Z,7.80
2019-04-05T23:22:03.033Z,7.80
2019-04-05T23:24:34.557Z,7.80
2019-04-05T23:27:06.396Z,7.80
2019-04-05T23:29:37.609Z,7.70
2019-04-05T23:32:08.933Z,7.70
2019-04-05T23:34:40.199Z,7.80
2019-04-05T23:37:11.660Z,7.70
2019-04-05T23:39:43.147Z,7.60
2019-04-05T23:42:15.273Z,7.70
2019-04-05T23:44:46.561Z,7.70
2019-04-05T23:47:17.918Z,7.50
2019-04-05T23:49:49.640Z,7.50
2019-04-05T23:52:21.411Z,7.60
2019-04-05T23:54:53.357Z,7.40
2019-04-05T23:57:24.784Z,7.50
2019-04-05T23:59:56.048Z,7.40
